sensor_id;sensor_type;location;lat;lon;timestamp;temperature;humidity
2907;DHT22;1463;51.070;16.998;2023-04-08T00:00:00;6.40;99.90
2907;DHT22;1463;51.070;16.998;2023-04-08T00:02:28;6.40;99.90
2907;DHT22;1463;51.070;16.998;2023-04-08T00:04:55;6.40;99.90
2907;DHT22;1463;51.070;16.998;2023-04-08T00:07:23;6.40;99.90
2907;DHT22;1463;51.070;16.998;2023-04-08T00:09:52;6.40;99.90
2907;DHT22;1463;51.070;16.998;2023-04-08T00:12:19;6.40;99.90
2907;DHT22;1463;51.070;16.998;2023-04-08T00:14:47;6.40;99.90
2907;DHT22;1463;51.070;16.998;2023-04-08T00:17:14;6.40;99.90
2907;DHT22;1463;51.070;16.998;2023-04-08T00:19:41;6.40;99.90
2907;DHT22;1463;51.070;16.998;2023-04-08T00:22:09;6.50;99.90
2907;DHT22;1463;51.070;16.998;2023-04-08T00:24:36;6.60;99.90
2907;DHT22;1463;51.070;16.998;2023-04-08T00:27:06;6.60;99.90
2907;DHT22;1463;51.070;16.998;2023-04-08T00:29:34;6.60;99.90
2907;DHT22;1463;51.070;16.998;2023-04-08T00:32:01;6.60;99.90
2907;DHT22;1463;51.070;16.998;2023-04-08T00:34:29;6.60;99.90
2907;DHT22;1463;51.070;16.998;2023-04-08T00:36:56;6.60;99.90
2907;DHT22;1463;51.070;16.998;2023-04-08T00:39:24;6.70;99.90
2907;DHT22;1463;51.070;16.998;2023-04-08T00:41:51;6.60;99.90
2907;DHT22;1463;51.070;16.998;2023-04-08T00:44:20;6.50;99.90
2907;DHT22;1463;51.070;16.998;2023-04-08T00:46:48;6.50;99.90
2907;DHT22;1463;51.070;16.998;2023-04-08T00:49:15;6.50;99.90
2907;DHT22;1463;51.070;16.998;2023-04-08T00:51:43;6.40;99.90
2907;DHT22;1463;51.070;16.998;2023-04-08T00:54:10;6.60;99.90
2907;DHT22;1463;51.070;16.998;2023-04-08T00:56:38;6.60;99.90
2907;DHT22;1463;51.070;16.998;2023-04-08T00:59:05;6.50;99.90
2907;DHT22;1463;51.070;16.998;2023-04-08T01:01:42;6.60;99.90
2907;DHT22;1463;51.070;16.998;2023-04-08T01:04:18;6.60;99.90
2907;DHT22;1463;51.070;16.998;2023-04-08T01:06:56;6.60;99.90
2907;DHT22;1463;51.070;16.998;2023-04-08T01:09:31;6.60;99.90
2907;DHT22;1463;51.070;16.998;2023-04-08T01:11:59;6.60;99.90
2907;DHT22;1463;51.070;16.998;2023-04-08T01:14:31;6.50;99.90
2907;DHT22;1463;51.070;16.998;2023-04-08T01:17:03;6.50;99.90
2907;DHT22;1463;51.070;16.998;2023-04-08T01:19:33;6.50;99.90
2907;DHT22;1463;51.070;16.998;2023-04-08T01:22:04;6.60;99.90
2907;DHT22;1463;51.070;16.998;2023-04-08T01:24:39;6.60;99.90
2907;DHT22;1463;51.070;16.998;2023-04-08T01:27:11;6.60;99.90
2907;DHT22;1463;51.070;16.998;2023-04-08T01:29:41;6.50;99.90
2907;DHT22;1463;51.070;16.998;2023-04-08T01:32:10;6.70;99.90
2907;DHT22;1463;51.070;16.998;2023-04-08T01:34:39;6.70;99.90
2907;DHT22;1463;51.070;16.998;2023-04-08T01:37:07;6.80;99.90
2907;DHT22;1463;51.070;16.998;2023-04-08T01:39:37;6.90;99.90
2907;DHT22;1463;51.070;16.998;2023-04-08T01:42:05;6.70;99.90
2907;DHT22;1463;51.070;16.998;2023-04-08T01:44:36;6.80;99.90
2907;DHT22;1463;51.070;16.998;2023-04-08T01:47:04;6.90;99.90
2907;DHT22;1463;51.070;16.998;2023-04-08T01:49:32;6.80;99.90
2907;DHT22;1463;51.070;16.998;2023-04-08T01:52:00;6.70;99.90
2907;DHT22;1463;51.070;16.998;2023-04-08T01:54:28;6.70;99.90
2907;DHT22;1463;51.070;16.998;2023-04-08T01:56:56;6.70;99.90
2907;DHT22;1463;51.070;16.998;2023-04-08T01:59:30;6.80;99.90
2907;DHT22;1463;51.070;16.998;2023-04-08T02:02:00;6.70;99.90
2907;DHT22;1463;51.070;16.998;2023-04-08T02:04:28;6.60;99.90
2907;DHT22;1463;51.070;16.998;2023-04-08T02:06:55;6.50;99.90
2907;DHT22;1463;51.070;16.998;2023-04-08T02:09:24;6.40;99.90
2907;DHT22;1463;51.070;16.998;2023-04-08T02:11:52;6.40;99.90
2907;DHT22;1463;51.070;16.998;2023-04-08T02:14:19;6.40;99.90
2907;DHT22;1463;51.070;16.998;2023-04-08T02:16:51;6.40;99.90
2907;DHT22;1463;51.070;16.998;2023-04-08T02:19:24;6.30;99.90
2907;DHT22;1463;51.070;16.998;2023-04-08T02:21:56;6.20;99.90
2907;DHT22;1463;51.070;16.998;2023-04-08T02:24:25;6.20;99.90
2907;DHT22;1463;51.070;16.998;2023-04-08T02:26:54;6.20;99.90
2907;DHT22;1463;51.070;16.998;2023-04-08T02:29:23;6.20;99.90
2907;DHT22;1463;51.070;16.998;2023-04-08T02:31:51;6.10;99.90
2907;DHT22;1463;51.070;16.998;2023-04-08T02:34:21;6.10;99.90
2907;DHT22;1463;51.070;16.998;2023-04-08T02:36:50;6.10;99.90
2907;DHT22;1463;51.070;16.998;2023-04-08T02:39:18;6.00;99.90
2907;DHT22;1463;51.070;16.998;2023-04-08T02:41:45;6.00;99.90
2907;DHT22;1463;51.070;16.998;2023-04-08T02:44:13;6.10;99.90
2907;DHT22;1463;51.070;16.998;2023-04-08T02:46:40;6.10;99.90
2907;DHT22;1463;51.070;16.998;2023-04-08T02:49:08;6.10;99.90
2907;DHT22;1463;51.070;16.998;2023-04-08T02:51:37;6.10;99.90
2907;DHT22;1463;51.070;16.998;2023-04-08T02:54:04;6.00;99.90
2907;DHT22;1463;51.070;16.998;2023-04-08T02:56:31;6.10;99.90
2907;DHT22;1463;51.070;16.998;2023-04-08T02:58:59;6.20;99.90
2907;DHT22;1463;51.070;16.998;2023-04-08T03:01:26;6.10;99.90
2907;DHT22;1463;51.070;16.998;2023-04-08T03:03:54;6.10;99.90
2907;DHT22;1463;51.070;16.998;2023-04-08T03:06:21;6.00;99.90
2907;DHT22;1463;51.070;16.998;2023-04-08T03:08:50;6.00;99.90
2907;DHT22;1463;51.070;16.998;2023-04-08T03:11:17;6.10;99.90
2907;DHT22;1463;51.070;16.998;2023-04-08T03:13:46;6.00;99.90
2907;DHT22;1463;51.070;16.998;2023-04-08T03:16:13;6.00;99.90
2907;DHT22;1463;51.070;16.998;2023-04-08T03:18:41;6.00;99.90
2907;DHT22;1463;51.070;16.998;2023-04-08T03:21:08;6.00;99.90
2907;DHT22;1463;51.070;16.998;2023-04-08T03:23:35;6.10;99.90
2907;DHT22;1463;51.070;16.998;2023-04-08T03:26:04;6.10;99.90
2907;DHT22;1463;51.070;16.998;2023-04-08T03:28:32;6.00;99.90
2907;DHT22;1463;51.070;16.998;2023-04-08T03:30:59;6.00;99.90
2907;DHT22;1463;51.070;16.998;2023-04-08T03:33:26;6.00;99.90
2907;DHT22;1463;51.070;16.998;2023-04-08T03:35:54;5.90;99.90
2907;DHT22;1463;51.070;16.998;2023-04-08T03:38:21;5.90;99.90
2907;DHT22;1463;51.070;16.998;2023-04-08T03:40:49;5.90;99.90
2907;DHT22;1463;51.070;16.998;2023-04-08T03:43:17;6.00;99.90
2907;DHT22;1463;51.070;16.998;2023-04-08T03:45:46;5.90;99.90
2907;DHT22;1463;51.070;16.998;2023-04-08T03:48:14;6.00;99.90
2907;DHT22;1463;51.070;16.998;2023-04-08T03:50:41;6.00;99.90
2907;DHT22;1463;51.070;16.998;2023-04-08T03:53:09;6.00;99.90
2907;DHT22;1463;51.070;16.998;2023-04-08T03:55:37;6.00;99.90
2907;DHT22;1463;51.070;16.998;2023-04-08T03:58:05;5.90;99.90
2907;DHT22;1463;51.070;16.998;2023-04-08T04:00:34;6.00;99.90
2907;DHT22;1463;51.070;16.998;2023-04-08T04:03:02;6.10;99.90
2907;DHT22;1463;51.070;16.998;2023-04-08T04:05:29;6.00;99.90
2907;DHT22;1463;51.070;16.998;2023-04-08T04:07:56;6.10;99.90
2907;DHT22;1463;51.070;16.998;2023-04-08T04:10:24;6.10;99.90
2907;DHT22;1463;51.070;16.998;2023-04-08T04:12:51;6.20;99.90
2907;DHT22;1463;51.070;16.998;2023-04-08T04:15:19;6.10;99.90
2907;DHT22;1463;51.070;16.998;2023-04-08T04:17:49;6.00;99.90
2907;DHT22;1463;51.070;16.998;2023-04-08T04:20:17;6.10;99.90
2907;DHT22;1463;51.070;16.998;2023-04-08T04:22:45;6.10;99.90
2907;DHT22;1463;51.070;16.998;2023-04-08T04:25:12;6.00;99.90
2907;DHT22;1463;51.070;16.998;2023-04-08T04:27:40;6.00;99.90
2907;DHT22;1463;51.070;16.998;2023-04-08T04:30:07;6.00;99.90
2907;DHT22;1463;51.070;16.998;2023-04-08T04:32:35;6.10;99.90
2907;DHT22;1463;51.070;16.998;2023-04-08T04:35:04;6.20;99.90
2907;DHT22;1463;51.070;16.998;2023-04-08T04:37:32;6.20;99.90
2907;DHT22;1463;51.070;16.998;2023-04-08T04:39:59;6.20;99.90
2907;DHT22;1463;51.070;16.998;2023-04-08T04:42:27;6.20;99.90
2907;DHT22;1463;51.070;16.998;2023-04-08T04:44:54;6.20;99.90
2907;DHT22;1463;51.070;16.998;2023-04-08T04:47:22;6.10;99.90
2907;DHT22;1463;51.070;16.998;2023-04-08T04:49:49;6.00;99.90
2907;DHT22;1463;51.070;16.998;2023-04-08T04:52:18;6.00;99.90
2907;DHT22;1463;51.070;16.998;2023-04-08T04:54:45;6.10;99.90
2907;DHT22;1463;51.070;16.998;2023-04-08T04:57:13;6.10;99.90
2907;DHT22;1463;51.070;16.998;2023-04-08T04:59:40;6.10;99.90
2907;DHT22;1463;51.070;16.998;2023-04-08T05:02:08;6.10;99.90
2907;DHT22;1463;51.070;16.998;2023-04-08T05:04:38;6.00;99.90
2907;DHT22;1463;51.070;16.998;2023-04-08T05:07:05;6.20;99.90
2907;DHT22;1463;51.070;16.998;2023-04-08T05:09:34;6.10;99.90
2907;DHT22;1463;51.070;16.998;2023-04-08T05:12:02;6.10;99.90
2907;DHT22;1463;51.070;16.998;2023-04-08T05:14:29;6.20;99.90
2907;DHT22;1463;51.070;16.998;2023-04-08T05:16:57;6.20;99.90
2907;DHT22;1463;51.070;16.998;2023-04-08T05:19:24;6.20;99.90
2907;DHT22;1463;51.070;16.998;2023-04-08T05:21:52;6.20;99.90
2907;DHT22;1463;51.070;16.998;2023-04-08T05:24:19;6.20;99.90
2907;DHT22;1463;51.070;16.998;2023-04-08T05:26:48;6.10;99.90
2907;DHT22;1463;51.070;16.998;2023-04-08T05:29:18;6.00;99.90
2907;DHT22;1463;51.070;16.998;2023-04-08T05:31:46;6.00;99.90
2907;DHT22;1463;51.070;16.998;2023-04-08T05:34:14;6.00;99.90
2907;DHT22;1463;51.070;16.998;2023-04-08T05:36:47;6.00;99.90
2907;DHT22;1463;51.070;16.998;2023-04-08T05:39:16;6.00;99.90
2907;DHT22;1463;51.070;16.998;2023-04-08T05:41:44;5.80;99.90
2907;DHT22;1463;51.070;16.998;2023-04-08T05:44:13;5.80;99.90
2907;DHT22;1463;51.070;16.998;2023-04-08T05:46:40;5.70;99.90
2907;DHT22;1463;51.070;16.998;2023-04-08T05:49:08;5.70;99.90
2907;DHT22;1463;51.070;16.998;2023-04-08T05:51:35;5.70;99.90
2907;DHT22;1463;51.070;16.998;2023-04-08T05:54:03;5.60;99.90
2907;DHT22;1463;51.070;16.998;2023-04-08T05:56:30;5.70;99.90
2907;DHT22;1463;51.070;16.998;2023-04-08T05:58:58;5.90;99.90
2907;DHT22;1463;51.070;16.998;2023-04-08T06:01:27;5.90;99.90
2907;DHT22;1463;51.070;16.998;2023-04-08T06:03:54;5.80;99.90
2907;DHT22;1463;51.070;16.998;2023-04-08T06:06:22;5.80;99.90
2907;DHT22;1463;51.070;16.998;2023-04-08T06:08:50;5.80;99.90
2907;DHT22;1463;51.070;16.998;2023-04-08T06:11:17;5.80;99.90
2907;DHT22;1463;51.070;16.998;2023-04-08T06:13:45;5.70;99.90
2907;DHT22;1463;51.070;16.998;2023-04-08T06:16:14;5.70;99.90
2907;DHT22;1463;51.070;16.998;2023-04-08T06:18:43;5.80;99.90
2907;DHT22;1463;51.070;16.998;2023-04-08T06:21:10;5.90;99.90
2907;DHT22;1463;51.070;16.998;2023-04-08T06:23:38;5.80;99.90
2907;DHT22;1463;51.070;16.998;2023-04-08T06:26:06;5.80;99.90
2907;DHT22;1463;51.070;16.998;2023-04-08T06:28:33;5.80;99.90
2907;DHT22;1463;51.070;16.998;2023-04-08T06:31:01;5.80;99.90
2907;DHT22;1463;51.070;16.998;2023-04-08T06:33:28;5.80;99.90
2907;DHT22;1463;51.070;16.998;2023-04-08T06:36:04;5.80;99.90
2907;DHT22;1463;51.070;16.998;2023-04-08T06:38:32;5.80;99.90
2907;DHT22;1463;51.070;16.998;2023-04-08T06:41:02;5.80;99.90
2907;DHT22;1463;51.070;16.998;2023-04-08T06:43:30;5.80;99.90
2907;DHT22;1463;51.070;16.998;2023-04-08T06:45:57;6.00;99.90
2907;DHT22;1463;51.070;16.998;2023-04-08T06:48:25;6.00;99.90
2907;DHT22;1463;51.070;16.998;2023-04-08T06:50:55;5.90;99.90
2907;DHT22;1463;51.070;16.998;2023-04-08T06:53:24;6.00;99.90
2907;DHT22;1463;51.070;16.998;2023-04-08T06:55:54;6.10;99.90
2907;DHT22;1463;51.070;16.998;2023-04-08T06:58:22;6.20;99.90
2907;DHT22;1463;51.070;16.998;2023-04-08T07:00:49;6.20;99.90
2907;DHT22;1463;51.070;16.998;2023-04-08T07:03:16;6.20;99.90
2907;DHT22;1463;51.070;16.998;2023-04-08T07:05:44;6.30;99.90
2907;DHT22;1463;51.070;16.998;2023-04-08T07:08:11;6.40;99.90
2907;DHT22;1463;51.070;16.998;2023-04-08T07:10:40;6.50;99.90
2907;DHT22;1463;51.070;16.998;2023-04-08T07:13:08;6.40;99.90
2907;DHT22;1463;51.070;16.998;2023-04-08T07:15:35;6.40;99.90
2907;DHT22;1463;51.070;16.998;2023-04-08T07:18:03;6.40;99.90
2907;DHT22;1463;51.070;16.998;2023-04-08T07:20:30;6.50;99.90
2907;DHT22;1463;51.070;16.998;2023-04-08T07:23:00;6.60;99.90
2907;DHT22;1463;51.070;16.998;2023-04-08T07:25:28;6.40;99.90
2907;DHT22;1463;51.070;16.998;2023-04-08T07:27:57;6.40;99.90
2907;DHT22;1463;51.070;16.998;2023-04-08T07:30:25;6.30;99.90
2907;DHT22;1463;51.070;16.998;2023-04-08T07:32:52;6.20;99.90
2907;DHT22;1463;51.070;16.998;2023-04-08T07:35:20;6.20;99.90
2907;DHT22;1463;51.070;16.998;2023-04-08T07:37:49;6.20;99.90
2907;DHT22;1463;51.070;16.998;2023-04-08T07:40:18;6.20;99.90
2907;DHT22;1463;51.070;16.998;2023-04-08T07:42:45;6.20;99.90
2907;DHT22;1463;51.070;16.998;2023-04-08T07:45:14;6.40;99.90
2907;DHT22;1463;51.070;16.998;2023-04-08T07:47:43;6.50;99.90
2907;DHT22;1463;51.070;16.998;2023-04-08T07:50:11;6.60;99.90
2907;DHT22;1463;51.070;16.998;2023-04-08T07:52:39;6.60;99.90
2907;DHT22;1463;51.070;16.998;2023-04-08T07:55:08;6.60;99.90
2907;DHT22;1463;51.070;16.998;2023-04-08T07:57:35;6.50;99.90
2907;DHT22;1463;51.070;16.998;2023-04-08T08:00:03;6.50;99.90
2907;DHT22;1463;51.070;16.998;2023-04-08T08:02:34;6.50;99.90
2907;DHT22;1463;51.070;16.998;2023-04-08T08:11:35;6.60;99.90
2907;DHT22;1463;51.070;16.998;2023-04-08T08:14:03;6.60;99.90
2907;DHT22;1463;51.070;16.998;2023-04-08T08:16:30;6.70;99.90
2907;DHT22;1463;51.070;16.998;2023-04-08T08:18:59;6.80;99.90
2907;DHT22;1463;51.070;16.998;2023-04-08T08:21:27;6.70;99.90
2907;DHT22;1463;51.070;16.998;2023-04-08T08:24:00;6.70;99.90
2907;DHT22;1463;51.070;16.998;2023-04-08T08:26:33;6.80;99.90
2907;DHT22;1463;51.070;16.998;2023-04-08T08:29:00;6.90;99.90
2907;DHT22;1463;51.070;16.998;2023-04-08T08:31:29;6.90;99.90
2907;DHT22;1463;51.070;16.998;2023-04-08T08:34:04;6.80;99.90
2907;DHT22;1463;51.070;16.998;2023-04-08T08:37:20;6.90;99.90
2907;DHT22;1463;51.070;16.998;2023-04-08T08:39:50;7.10;99.90
2907;DHT22;1463;51.070;16.998;2023-04-08T08:45:38;7.10;99.90
2907;DHT22;1463;51.070;16.998;2023-04-08T08:48:07;7.20;99.90
2907;DHT22;1463;51.070;16.998;2023-04-08T08:50:36;7.20;99.90
2907;DHT22;1463;51.070;16.998;2023-04-08T08:53:03;7.20;99.90
2907;DHT22;1463;51.070;16.998;2023-04-08T08:55:33;7.10;99.90
2907;DHT22;1463;51.070;16.998;2023-04-08T09:05:29;7.00;99.90
2907;DHT22;1463;51.070;16.998;2023-04-08T09:08:00;6.90;99.90
2907;DHT22;1463;51.070;16.998;2023-04-08T09:10:28;6.90;99.90
2907;DHT22;1463;51.070;16.998;2023-04-08T09:12:56;7.00;99.90
2907;DHT22;1463;51.070;16.998;2023-04-08T09:15:23;7.00;99.90
2907;DHT22;1463;51.070;16.998;2023-04-08T09:17:53;7.10;99.90
2907;DHT22;1463;51.070;16.998;2023-04-08T09:20:53;7.10;99.90
2907;DHT22;1463;51.070;16.998;2023-04-08T09:23:48;7.40;99.90
2907;DHT22;1463;51.070;16.998;2023-04-08T09:26:22;7.50;99.90
2907;DHT22;1463;51.070;16.998;2023-04-08T09:29:00;7.50;99.90
2907;DHT22;1463;51.070;16.998;2023-04-08T09:31:40;7.50;99.90
2907;DHT22;1463;51.070;16.998;2023-04-08T09:34:11;7.40;99.90
2907;DHT22;1463;51.070;16.998;2023-04-08T10:24:00;7.90;99.90
2907;DHT22;1463;51.070;16.998;2023-04-08T10:26:33;7.80;99.90
2907;DHT22;1463;51.070;16.998;2023-04-08T10:29:29;7.80;99.90
2907;DHT22;1463;51.070;16.998;2023-04-08T10:32:00;7.60;99.90
2907;DHT22;1463;51.070;16.998;2023-04-08T10:34:29;7.60;99.90
2907;DHT22;1463;51.070;16.998;2023-04-08T12:44:15;11.90;99.90
2907;DHT22;1463;51.070;16.998;2023-04-08T12:46:43;11.70;99.90
2907;DHT22;1463;51.070;16.998;2023-04-08T12:49:11;11.70;99.90
2907;DHT22;1463;51.070;16.998;2023-04-08T12:51:38;11.70;99.90
2907;DHT22;1463;51.070;16.998;2023-04-08T12:54:06;11.80;99.90
2907;DHT22;1463;51.070;16.998;2023-04-08T12:56:34;12.10;99.90
2907;DHT22;1463;51.070;16.998;2023-04-08T12:59:01;12.40;98.80
2907;DHT22;1463;51.070;16.998;2023-04-08T13:01:30;12.40;97.40
2907;DHT22;1463;51.070;16.998;2023-04-08T13:03:57;12.40;97.20
2907;DHT22;1463;51.070;16.998;2023-04-08T13:06:25;12.50;98.00
2907;DHT22;1463;51.070;16.998;2023-04-08T13:08:53;12.50;96.80
2907;DHT22;1463;51.070;16.998;2023-04-08T13:11:20;12.50;97.60
2907;DHT22;1463;51.070;16.998;2023-04-08T13:13:48;12.50;96.60
2907;DHT22;1463;51.070;16.998;2023-04-08T13:16:16;12.40;97.10
2907;DHT22;1463;51.070;16.998;2023-04-08T13:18:45;12.50;96.70
2907;DHT22;1463;51.070;16.998;2023-04-08T13:21:13;12.50;96.20
2907;DHT22;1463;51.070;16.998;2023-04-08T13:23:40;12.50;95.60
2907;DHT22;1463;51.070;16.998;2023-04-08T13:26:07;12.40;95.80
2907;DHT22;1463;51.070;16.998;2023-04-08T13:28:35;12.30;95.10
2907;DHT22;1463;51.070;16.998;2023-04-08T13:31:03;12.20;95.60
2907;DHT22;1463;51.070;16.998;2023-04-08T13:33:30;12.20;95.50
2907;DHT22;1463;51.070;16.998;2023-04-08T13:35:59;12.20;95.00
2907;DHT22;1463;51.070;16.998;2023-04-08T13:38:26;12.40;95.00
2907;DHT22;1463;51.070;16.998;2023-04-08T13:40:54;12.60;95.70
2907;DHT22;1463;51.070;16.998;2023-04-08T13:43:22;12.80;96.00
2907;DHT22;1463;51.070;16.998;2023-04-08T13:45:49;13.10;94.10
2907;DHT22;1463;51.070;16.998;2023-04-08T13:48:16;13.30;93.30
2907;DHT22;1463;51.070;16.998;2023-04-08T13:50:44;13.30;93.10
2907;DHT22;1463;51.070;16.998;2023-04-08T13:53:13;13.10;93.50
2907;DHT22;1463;51.070;16.998;2023-04-08T13:55:41;13.00;92.50
2907;DHT22;1463;51.070;16.998;2023-04-08T13:58:08;12.80;92.20
2907;DHT22;1463;51.070;16.998;2023-04-08T14:00:35;12.70;92.00
2907;DHT22;1463;51.070;16.998;2023-04-08T14:03:03;12.40;92.30
2907;DHT22;1463;51.070;16.998;2023-04-08T14:05:30;12.20;93.30
2907;DHT22;1463;51.070;16.998;2023-04-08T14:07:58;12.20;94.20
2907;DHT22;1463;51.070;16.998;2023-04-08T14:10:27;12.30;94.50
2907;DHT22;1463;51.070;16.998;2023-04-08T14:12:54;12.30;93.80
2907;DHT22;1463;51.070;16.998;2023-04-08T14:15:21;12.30;93.80
2907;DHT22;1463;51.070;16.998;2023-04-08T14:17:49;12.30;93.70
2907;DHT22;1463;51.070;16.998;2023-04-08T14:20:16;12.30;93.90
2907;DHT22;1463;51.070;16.998;2023-04-08T14:22:44;12.30;93.40
2907;DHT22;1463;51.070;16.998;2023-04-08T14:25:12;12.30;93.40
2907;DHT22;1463;51.070;16.998;2023-04-08T14:27:41;12.30;93.40
2907;DHT22;1463;51.070;16.998;2023-04-08T14:30:09;12.30;93.40
2907;DHT22;1463;51.070;16.998;2023-04-08T14:32:37;12.40;93.80
2907;DHT22;1463;51.070;16.998;2023-04-08T14:35:05;12.50;93.00
2907;DHT22;1463;51.070;16.998;2023-04-08T14:37:33;12.50;92.70
2907;DHT22;1463;51.070;16.998;2023-04-08T14:40:03;12.60;93.10
2907;DHT22;1463;51.070;16.998;2023-04-08T14:42:31;12.60;92.20
2907;DHT22;1463;51.070;16.998;2023-04-08T14:45:00;12.70;93.10
2907;DHT22;1463;51.070;16.998;2023-04-08T14:47:28;12.60;92.50
2907;DHT22;1463;51.070;16.998;2023-04-08T14:49:55;12.60;92.90
2907;DHT22;1463;51.070;16.998;2023-04-08T14:52:23;12.50;93.10
2907;DHT22;1463;51.070;16.998;2023-04-08T14:54:50;12.50;93.10
2907;DHT22;1463;51.070;16.998;2023-04-08T14:57:18;12.40;93.50
2907;DHT22;1463;51.070;16.998;2023-04-08T14:59:46;12.40;93.40
2907;DHT22;1463;51.070;16.998;2023-04-08T15:02:15;12.40;93.00
2907;DHT22;1463;51.070;16.998;2023-04-08T15:04:42;12.40;93.40
2907;DHT22;1463;51.070;16.998;2023-04-08T15:07:10;12.40;93.30
2907;DHT22;1463;51.070;16.998;2023-04-08T15:09:38;12.40;92.80
2907;DHT22;1463;51.070;16.998;2023-04-08T15:12:05;12.40;92.70
2907;DHT22;1463;51.070;16.998;2023-04-08T15:14:33;12.40;93.30
2907;DHT22;1463;51.070;16.998;2023-04-08T15:17:00;12.50;92.80
2907;DHT22;1463;51.070;16.998;2023-04-08T15:19:29;12.50;92.90
2907;DHT22;1463;51.070;16.998;2023-04-08T15:21:57;12.50;94.00
2907;DHT22;1463;51.070;16.998;2023-04-08T15:24:24;12.60;93.00
2907;DHT22;1463;51.070;16.998;2023-04-08T15:26:52;12.50;92.90
2907;DHT22;1463;51.070;16.998;2023-04-08T15:29:21;12.50;93.10
2907;DHT22;1463;51.070;16.998;2023-04-08T15:31:49;12.60;93.30
2907;DHT22;1463;51.070;16.998;2023-04-08T15:34:18;12.40;93.60
2907;DHT22;1463;51.070;16.998;2023-04-08T15:36:48;12.50;93.60
2907;DHT22;1463;51.070;16.998;2023-04-08T15:39:15;12.40;93.00
2907;DHT22;1463;51.070;16.998;2023-04-08T15:41:43;12.30;93.30
2907;DHT22;1463;51.070;16.998;2023-04-08T15:44:11;12.20;93.80
2907;DHT22;1463;51.070;16.998;2023-04-08T15:46:38;12.20;93.80
2907;DHT22;1463;51.070;16.998;2023-04-08T15:49:06;12.20;94.00
2907;DHT22;1463;51.070;16.998;2023-04-08T15:51:34;12.20;94.40
2907;DHT22;1463;51.070;16.998;2023-04-08T15:54:03;12.20;94.30
2907;DHT22;1463;51.070;16.998;2023-04-08T15:56:30;12.00;94.70
2907;DHT22;1463;51.070;16.998;2023-04-08T15:58:58;12.00;95.20
2907;DHT22;1463;51.070;16.998;2023-04-08T16:01:26;11.90;95.80
2907;DHT22;1463;51.070;16.998;2023-04-08T16:03:53;12.00;95.20
2907;DHT22;1463;51.070;16.998;2023-04-08T16:06:21;12.00;94.80
2907;DHT22;1463;51.070;16.998;2023-04-08T16:08:49;11.80;95.20
2907;DHT22;1463;51.070;16.998;2023-04-08T16:11:20;11.90;95.50
2907;DHT22;1463;51.070;16.998;2023-04-08T16:13:48;11.90;95.50
2907;DHT22;1463;51.070;16.998;2023-04-08T16:16:16;11.80;95.20
2907;DHT22;1463;51.070;16.998;2023-04-08T16:18:44;11.90;95.30
2907;DHT22;1463;51.070;16.998;2023-04-08T16:21:12;11.80;95.40
2907;DHT22;1463;51.070;16.998;2023-04-08T16:23:39;11.70;95.30
2907;DHT22;1463;51.070;16.998;2023-04-08T16:26:07;11.60;95.90
2907;DHT22;1463;51.070;16.998;2023-04-08T16:28:36;11.50;96.70
2907;DHT22;1463;51.070;16.998;2023-04-08T16:31:04;11.40;97.20
2907;DHT22;1463;51.070;16.998;2023-04-08T16:33:32;11.40;97.90
2907;DHT22;1463;51.070;16.998;2023-04-08T16:36:00;11.50;98.10
2907;DHT22;1463;51.070;16.998;2023-04-08T16:38:29;11.70;98.30
2907;DHT22;1463;51.070;16.998;2023-04-08T16:40:58;11.60;98.20
2907;DHT22;1463;51.070;16.998;2023-04-08T16:43:25;11.70;98.10
2907;DHT22;1463;51.070;16.998;2023-04-08T16:45:54;11.60;98.20
2907;DHT22;1463;51.070;16.998;2023-04-08T16:48:21;11.70;97.40
2907;DHT22;1463;51.070;16.998;2023-04-08T16:50:49;11.60;97.00
2907;DHT22;1463;51.070;16.998;2023-04-08T16:53:16;11.50;97.90
2907;DHT22;1463;51.070;16.998;2023-04-08T16:55:44;11.50;97.80
2907;DHT22;1463;51.070;16.998;2023-04-08T16:58:11;11.50;98.10
2907;DHT22;1463;51.070;16.998;2023-04-08T17:00:38;11.40;98.30
2907;DHT22;1463;51.070;16.998;2023-04-08T17:03:07;11.40;98.70
2907;DHT22;1463;51.070;16.998;2023-04-08T17:05:35;11.40;99.00
2907;DHT22;1463;51.070;16.998;2023-04-08T17:08:03;11.50;99.60
2907;DHT22;1463;51.070;16.998;2023-04-08T17:10:30;11.50;99.60
2907;DHT22;1463;51.070;16.998;2023-04-08T17:12:58;11.50;99.70
2907;DHT22;1463;51.070;16.998;2023-04-08T17:15:25;11.50;99.90
2907;DHT22;1463;51.070;16.998;2023-04-08T17:17:53;11.60;99.90
2907;DHT22;1463;51.070;16.998;2023-04-08T17:20:22;11.60;99.80
2907;DHT22;1463;51.070;16.998;2023-04-08T17:22:51;11.60;99.30
2907;DHT22;1463;51.070;16.998;2023-04-08T17:25:18;11.40;99.90
2907;DHT22;1463;51.070;16.998;2023-04-08T17:27:46;11.30;99.90
2907;DHT22;1463;51.070;16.998;2023-04-08T17:30:13;11.30;99.90
2907;DHT22;1463;51.070;16.998;2023-04-08T17:32:40;11.30;99.90
2907;DHT22;1463;51.070;16.998;2023-04-08T17:35:08;11.40;99.90
2907;DHT22;1463;51.070;16.998;2023-04-08T17:37:37;11.30;99.90
2907;DHT22;1463;51.070;16.998;2023-04-08T17:40:06;11.30;99.90
2907;DHT22;1463;51.070;16.998;2023-04-08T17:42:33;11.30;99.90
2907;DHT22;1463;51.070;16.998;2023-04-08T17:45:01;11.30;99.90
2907;DHT22;1463;51.070;16.998;2023-04-08T17:47:30;11.30;99.90
2907;DHT22;1463;51.070;16.998;2023-04-08T17:49:57;11.20;99.90
2907;DHT22;1463;51.070;16.998;2023-04-08T17:52:24;11.10;99.90
2907;DHT22;1463;51.070;16.998;2023-04-08T17:54:54;11.00;99.90
2907;DHT22;1463;51.070;16.998;2023-04-08T17:57:21;10.90;99.90
2907;DHT22;1463;51.070;16.998;2023-04-08T17:59:49;11.00;99.90
2907;DHT22;1463;51.070;16.998;2023-04-08T18:02:17;10.80;99.90
2907;DHT22;1463;51.070;16.998;2023-04-08T18:04:44;10.80;99.90
2907;DHT22;1463;51.070;16.998;2023-04-08T18:07:12;10.90;99.90
2907;DHT22;1463;51.070;16.998;2023-04-08T18:09:39;10.80;99.90
2907;DHT22;1463;51.070;16.998;2023-04-08T18:12:08;10.70;99.90
2907;DHT22;1463;51.070;16.998;2023-04-08T18:14:36;10.80;99.90
2907;DHT22;1463;51.070;16.998;2023-04-08T18:17:04;10.80;99.90
2907;DHT22;1463;51.070;16.998;2023-04-08T18:19:31;10.80;99.90
2907;DHT22;1463;51.070;16.998;2023-04-08T18:21:59;10.80;99.90
2907;DHT22;1463;51.070;16.998;2023-04-08T18:24:26;10.90;99.90
2907;DHT22;1463;51.070;16.998;2023-04-08T18:26:54;10.90;99.90
2907;DHT22;1463;51.070;16.998;2023-04-08T18:29:23;10.90;99.90
2907;DHT22;1463;51.070;16.998;2023-04-08T18:31:51;10.90;99.90
2907;DHT22;1463;51.070;16.998;2023-04-08T18:34:19;10.90;99.90
2907;DHT22;1463;51.070;16.998;2023-04-08T18:36:47;10.80;99.90
2907;DHT22;1463;51.070;16.998;2023-04-08T18:39:15;10.80;99.90
2907;DHT22;1463;51.070;16.998;2023-04-08T18:41:43;10.80;99.90
2907;DHT22;1463;51.070;16.998;2023-04-08T18:44:11;10.80;99.90
2907;DHT22;1463;51.070;16.998;2023-04-08T18:46:40;10.80;99.90
2907;DHT22;1463;51.070;16.998;2023-04-08T18:49:07;10.80;99.90
2907;DHT22;1463;51.070;16.998;2023-04-08T18:51:35;10.80;99.90
2907;DHT22;1463;51.070;16.998;2023-04-08T18:54:02;10.70;99.90
2907;DHT22;1463;51.070;16.998;2023-04-08T18:56:30;10.70;99.90
2907;DHT22;1463;51.070;16.998;2023-04-08T18:58:59;10.70;99.90
2907;DHT22;1463;51.070;16.998;2023-04-08T19:01:26;10.70;99.90
2907;DHT22;1463;51.070;16.998;2023-04-08T19:03:57;10.70;99.90
2907;DHT22;1463;51.070;16.998;2023-04-08T19:06:26;10.70;99.90
2907;DHT22;1463;51.070;16.998;2023-04-08T19:08:53;10.70;99.90
2907;DHT22;1463;51.070;16.998;2023-04-08T19:11:21;10.70;99.90
2907;DHT22;1463;51.070;16.998;2023-04-08T19:13:53;10.60;99.90